Time,TemperatureF,DewpointF,PressureIn,WindDirection,WindDirectionDegrees,WindSpeedMPH,WindSpeedGustMPH,Humidity,HourlyPrecipIn,Conditions,Clouds,dailyrainin,SoftwareType,DateUTC
2013-05-26 00:00:00,41.0,14.0,-100.00,East,100,1.0,2.0,33,-99.99,,,-99.99,,2013-05-26 06:00:00,
2013-05-26 00:42:00,41.0,14.0,-100.00,East,100,1.0,2.0,33,-99.99,,,-99.99,,2013-05-26 06:42:00,
2013-05-26 00:52:00,41.0,14.0,-100.00,East,100,1.0,2.0,33,-99.99,,,-99.99,,2013-05-26 06:52:00,
2013-05-26 01:00:00,39.0,15.0,-100.00,ESE,112,1.0,4.0,37,-99.99,,,-99.99,,2013-05-26 07:00:00,
2013-05-26 01:42:00,39.0,15.0,-100.00,ESE,112,1.0,4.0,37,-99.99,,,-99.99,,2013-05-26 07:42:00,
2013-05-26 01:52:00,39.0,15.0,-100.00,ESE,112,1.0,4.0,37,-99.99,,,-99.99,,2013-05-26 07:52:00,
2013-05-26 02:00:00,38.0,15.0,-100.00,ESE,114,1.0,3.0,39,-99.99,,,-99.99,,2013-05-26 08:00:00,
2013-05-26 02:42:00,38.0,15.0,-100.00,ESE,114,1.0,3.0,39,-99.99,,,-99.99,,2013-05-26 08:42:00,
2013-05-26 02:53:00,38.0,15.0,-100.00,ESE,114,1.0,3.0,39,-99.99,,,-99.99,,2013-05-26 08:53:00,
2013-05-26 03:00:00,38.0,15.0,-100.00,ESE,114,1.0,4.0,39,-99.99,,,-99.99,,2013-05-26 09:00:00,
2013-05-26 03:43:00,38.0,15.0,-100.00,ESE,114,1.0,4.0,39,-99.99,,,-99.99,,2013-05-26 09:43:00,
2013-05-26 03:53:00,38.0,15.0,-100.00,ESE,114,1.0,4.0,39,-99.99,,,-99.99,,2013-05-26 09:53:00,
2013-05-26 04:00:00,37.0,15.0,-100.00,ESE,118,1.0,2.0,40,-99.99,,,-99.99,,2013-05-26 10:00:00,
2013-05-26 04:42:00,37.0,15.0,-100.00,ESE,118,1.0,2.0,40,-99.99,,,-99.99,,2013-05-26 10:42:00,
2013-05-26 04:52:00,37.0,15.0,-100.00,ESE,118,1.0,2.0,40,-99.99,,,-99.99,,2013-05-26 10:52:00,
2013-05-26 05:00:00,38.0,14.0,-100.00,East,92,0.0,2.0,38,-99.99,,,-99.99,,2013-05-26 11:00:00,
2013-05-26 05:42:00,38.0,14.0,-100.00,East,92,0.0,2.0,38,-99.99,,,-99.99,,2013-05-26 11:42:00,
2013-05-26 05:52:00,38.0,14.0,-100.00,East,92,0.0,2.0,38,-99.99,,,-99.99,,2013-05-26 11:52:00,
2013-05-26 06:00:00,38.0,14.0,-100.00,East,80,0.0,2.0,37,-99.99,,,-99.99,,2013-05-26 12:00:00,
2013-05-26 06:42:00,38.0,14.0,-100.00,East,80,0.0,2.0,37,-99.99,,,-99.99,,2013-05-26 12:42:00,
2013-05-26 06:52:00,38.0,14.0,-100.00,East,80,0.0,2.0,37,-99.99,,,-99.99,,2013-05-26 12:52:00,
2013-05-26 07:00:00,37.0,14.0,-100.00,East,81,0.0,2.0,38,-99.99,,,-99.99,,2013-05-26 13:00:00,
2013-05-26 07:42:00,37.0,14.0,-100.00,East,81,0.0,2.0,38,-99.99,,,-99.99,,2013-05-26 13:42:00,
2013-05-26 07:52:00,37.0,14.0,-100.00,East,81,0.0,2.0,38,-99.99,,,-99.99,,2013-05-26 13:52:00,
2013-05-26 08:00:00,41.0,17.0,-100.00,ESE,122,1.0,4.0,37,-99.99,,,-99.99,,2013-05-26 14:00:00,
2013-05-26 08:42:00,41.0,17.0,-100.00,ESE,122,1.0,4.0,37,-99.99,,,-99.99,,2013-05-26 14:42:00,
2013-05-26 08:52:00,41.0,17.0,-100.00,ESE,122,1.0,4.0,37,-99.99,,,-99.99,,2013-05-26 14:52:00,
2013-05-26 09:00:00,45.0,15.0,-100.00,South,186,1.0,6.0,29,-99.99,,,-99.99,,2013-05-26 15:00:00,
2013-05-26 09:43:00,45.0,15.0,-100.00,South,186,1.0,6.0,29,-99.99,,,-99.99,,2013-05-26 15:43:00,
2013-05-26 09:53:00,45.0,15.0,-100.00,South,186,1.0,6.0,29,-99.99,,,-99.99,,2013-05-26 15:53:00,
2013-05-26 10:00:00,50.0,10.0,-100.00,SSW,209,2.0,11.0,19,-99.99,,,-99.99,,2013-05-26 16:00:00,
2013-05-26 10:42:00,50.0,10.0,-100.00,SSW,209,2.0,11.0,19,-99.99,,,-99.99,,2013-05-26 16:42:00,
2013-05-26 10:53:00,50.0,10.0,-100.00,SSW,209,2.0,11.0,19,-99.99,,,-99.99,,2013-05-26 16:53:00,
2013-05-26 11:00:00,52.0,9.0,-100.00,SW,218,4.0,12.0,17,-99.99,,,-99.99,,2013-05-26 17:00:00,
2013-05-26 11:42:00,52.0,9.0,-100.00,SW,218,4.0,12.0,17,-99.99,,,-99.99,,2013-05-26 17:42:00,
2013-05-26 11:52:00,52.0,9.0,-100.00,SW,218,4.0,12.0,17,-99.99,,,-99.99,,2013-05-26 17:52:00,
2013-05-26 12:00:00,55.0,9.0,-100.00,SSW,213,4.0,11.0,15,-99.99,,,-99.99,,2013-05-26 18:00:00,
2013-05-26 12:42:00,55.0,9.0,-100.00,SSW,213,4.0,11.0,15,-99.99,,,-99.99,,2013-05-26 18:42:00,
2013-05-26 12:52:00,55.0,9.0,-100.00,SSW,213,4.0,11.0,15,-99.99,,,-99.99,,2013-05-26 18:52:00,
2013-05-26 13:00:00,58.0,11.0,-100.00,WSW,245,3.0,10.0,15,-99.99,,,-99.99,,2013-05-26 19:00:00,
2013-05-26 13:42:00,58.0,11.0,-100.00,WSW,245,3.0,10.0,15,-99.99,,,-99.99,,2013-05-26 19:42:00,
2013-05-26 13:52:00,58.0,11.0,-100.00,WSW,245,3.0,10.0,15,-99.99,,,-99.99,,2013-05-26 19:52:00,
2013-05-26 14:00:00,58.0,11.0,-100.00,WSW,237,3.0,14.0,15,-99.99,,,-99.99,,2013-05-26 20:00:00,
2013-05-26 14:42:00,58.0,11.0,-100.00,WSW,237,3.0,14.0,15,-99.99,,,-99.99,,2013-05-26 20:42:00,
2013-05-26 14:52:00,58.0,11.0,-100.00,WSW,237,3.0,14.0,15,-99.99,,,-99.99,,2013-05-26 20:52:00,
2013-05-26 15:00:00,60.0,10.0,-100.00,SW,218,4.0,15.0,13,-99.99,,,-99.99,,2013-05-26 21:00:00,
2013-05-26 15:43:00,60.0,10.0,-100.00,SW,218,4.0,15.0,13,-99.99,,,-99.99,,2013-05-26 21:43:00,
2013-05-26 15:53:00,60.0,10.0,-100.00,SW,218,4.0,15.0,13,-99.99,,,-99.99,,2013-05-26 21:53:00,
2013-05-26 16:00:00,59.0,10.0,-100.00,WSW,242,4.0,11.0,14,-99.99,,,-99.99,,2013-05-26 22:00:00,
2013-05-26 16:42:00,59.0,10.0,-100.00,WSW,242,4.0,11.0,14,-99.99,,,-99.99,,2013-05-26 22:42:00,
2013-05-26 16:53:00,59.0,10.0,-100.00,WSW,242,4.0,11.0,14,-99.99,,,-99.99,,2013-05-26 22:53:00,
2013-05-26 17:00:00,59.0,13.0,-100.00,NW,312,2.0,12.0,16,-99.99,,,-99.99,,2013-05-26 23:00:00,
2013-05-26 17:43:00,59.0,13.0,-100.00,NW,312,2.0,12.0,16,-99.99,,,-99.99,,2013-05-26 23:43:00,
2013-05-26 17:52:00,59.0,13.0,-100.00,NW,312,2.0,12.0,16,-99.99,,,-99.99,,2013-05-26 23:52:00,
2013-05-26 18:00:00,60.0,12.0,-100.00,West,272,4.0,13.0,14,-99.99,,,-99.99,,2013-05-27 00:00:00,
2013-05-26 18:42:00,60.0,12.0,-100.00,West,272,4.0,13.0,14,-99.99,,,-99.99,,2013-05-27 00:42:00,
2013-05-26 18:52:00,60.0,12.0,-100.00,West,272,4.0,13.0,14,-99.99,,,-99.99,,2013-05-27 00:52:00,
2013-05-26 19:00:00,56.0,14.0,-100.00,NW,310,4.0,12.0,18,-99.99,,,-99.99,,2013-05-27 01:00:00,
2013-05-26 19:42:00,56.0,14.0,-100.00,NW,310,4.0,12.0,18,-99.99,,,-99.99,,2013-05-27 01:42:00,
2013-05-26 19:52:00,56.0,14.0,-100.00,NW,310,4.0,12.0,18,-99.99,,,-99.99,,2013-05-27 01:52:00,
2013-05-26 20:00:00,54.0,15.0,-100.00,NNW,335,3.0,9.0,21,-99.99,,,-99.99,,2013-05-27 02:00:00,
2013-05-26 20:43:00,54.0,15.0,-100.00,NNW,335,3.0,9.0,21,-99.99,,,-99.99,,2013-05-27 02:43:00,
2013-05-26 20:52:00,54.0,15.0,-100.00,NNW,335,3.0,9.0,21,-99.99,,,-99.99,,2013-05-27 02:52:00,
2013-05-26 21:00:00,48.0,15.0,-100.00,North,3,1.0,4.0,26,-99.99,,,-99.99,,2013-05-27 03:00:00,
2013-05-26 21:43:00,48.0,15.0,-100.00,North,3,1.0,4.0,26,-99.99,,,-99.99,,2013-05-27 03:43:00,
2013-05-26 21:53:00,48.0,15.0,-100.00,North,3,1.0,4.0,26,-99.99,,,-99.99,,2013-05-27 03:53:00,
2013-05-26 22:00:00,43.0,15.0,-100.00,NE,51,1.0,2.0,32,-99.99,,,-99.99,,2013-05-27 04:00:00,
2013-05-26 22:43:00,43.0,15.0,-100.00,NE,51,1.0,2.0,32,-99.99,,,-99.99,,2013-05-27 04:43:00,
2013-05-26 22:52:00,43.0,15.0,-100.00,NE,51,1.0,2.0,32,-99.99,,,-99.99,,2013-05-27 04:52:00,
2013-05-26 23:00:00,43.0,14.0,-100.00,NE,40,1.0,3.0,31,-99.99,,,-99.99,,2013-05-27 05:00:00,
2013-05-26 23:42:00,43.0,14.0,-100.00,NE,40,1.0,3.0,31,-99.99,,,-99.99,,2013-05-27 05:42:00,
2013-05-26 23:52:00,43.0,14.0,-100.00,NE,40,1.0,3.0,31,-99.99,,,-99.99,,2013-05-27 05:52:00,